createdAt,value
2019-02-15T00:00:02.664Z,67.21
2019-02-15T00:00:38.161Z,66.74
2019-02-15T00:01:13.405Z,66.93
2019-02-15T00:01:48.614Z,69.38
2019-02-15T00:02:24.528Z,70.05
2019-02-15T00:02:59.943Z,66.64
2019-02-15T00:03:35.414Z,67.49
2019-02-15T00:04:10.706Z,67.96
2019-02-15T00:04:46.040Z,65.88
2019-02-15T00:05:21.430Z,64.27
2019-02-15T00:05:57.268Z,63.04
2019-02-15T00:06:32.673Z,63.98
2019-02-15T00:07:08.242Z,62.75
2019-02-15T00:07:43.653Z,60.67
2019-02-15T00:08:19.196Z,63.51
2019-02-15T00:08:54.687Z,64.46
2019-02-15T00:09:30.324Z,67.77
2019-02-15T00:10:05.619Z,66.93
2019-02-15T00:10:40.942Z,66.45
2019-02-15T00:11:16.246Z,65.50
2019-02-15T00:11:51.679Z,64.46
2019-02-15T00:12:27.193Z,62.47
2019-02-15T00:13:02.510Z,63.42
2019-02-15T00:13:37.803Z,66.93
2019-02-15T00:14:13.313Z,64.93
2019-02-15T00:14:49.020Z,63.70
2019-02-15T00:15:24.425Z,65.78
2019-02-15T00:15:59.649Z,63.51
2019-02-15T00:16:34.914Z,63.79
2019-02-15T00:17:10.290Z,62.94
2019-02-15T00:17:45.872Z,63.70
2019-02-15T00:18:21.097Z,65.03
2019-02-15T00:18:56.584Z,61.24
2019-02-15T00:19:32.028Z,63.23
2019-02-15T00:20:07.657Z,61.61
2019-02-15T00:20:43.084Z,63.04
2019-02-15T00:21:18.292Z,61.99
2019-02-15T00:21:53.722Z,62.66
2019-02-15T00:22:28.935Z,61.71
2019-02-15T00:23:04.465Z,63.98
2019-02-15T00:23:40.096Z,65.12
2019-02-15T00:24:15.596Z,68.15
2019-02-15T00:24:51.105Z,68.15
2019-02-15T00:25:26.426Z,67.58
2019-02-15T00:26:01.948Z,66.74
2019-02-15T00:26:37.453Z,65.31
2019-02-15T00:27:13.277Z,66.74
2019-02-15T00:27:48.587Z,67.02
2019-02-15T00:28:24.200Z,67.30
2019-02-15T00:28:59.198Z,68.25
2019-02-15T00:29:34.629Z,65.88
2019-02-15T00:30:10.035Z,67.77
2019-02-15T00:30:45.177Z,70.81
2019-02-15T00:31:20.461Z,69.57
2019-02-15T00:31:55.894Z,70.72
2019-02-15T00:32:31.191Z,72.61
2019-02-15T00:33:06.652Z,69.48
2019-02-15T00:33:41.952Z,69.48
2019-02-15T00:34:17.399Z,68.63
2019-02-15T00:34:52.921Z,69.67
2019-02-15T00:35:28.231Z,72.23
2019-02-15T00:36:03.455Z,72.23
2019-02-15T00:36:38.682Z,69.38
2019-02-15T00:37:13.875Z,71.66
2019-02-15T00:37:49.222Z,72.14
2019-02-15T00:38:24.523Z,73.37
2019-02-15T00:38:59.645Z,71.85
2019-02-15T00:39:34.741Z,70.05
2019-02-15T00:40:10.068Z,72.14
2019-02-15T00:40:45.483Z,72.80
2019-02-15T00:41:20.901Z,70.72
2019-02-15T00:41:56.197Z,71.38
2019-02-15T00:42:31.444Z,68.91
2019-02-15T00:43:06.944Z,69.57
2019-02-15T00:43:42.161Z,71.28
2019-02-15T00:44:17.637Z,72.52
2019-02-15T00:44:52.963Z,71.76
2019-02-15T00:45:28.266Z,72.23
2019-02-15T00:46:03.695Z,72.80
2019-02-15T00:46:39.138Z,74.13
2019-02-15T00:47:15.654Z,75.26
2019-02-15T00:47:50.931Z,72.89
2019-02-15T00:48:26.376Z,74.60
2019-02-15T00:49:01.588Z,72.80
2019-02-15T00:49:37.225Z,75.74
2019-02-15T00:50:12.495Z,76.59
2019-02-15T00:50:47.916Z,76.31
2019-02-15T00:51:23.222Z,72.80
2019-02-15T00:51:58.570Z,74.13
2019-02-15T00:52:34.159Z,76.31
2019-02-15T00:53:09.180Z,76.68
2019-02-15T00:53:44.514Z,75.45
2019-02-15T00:54:19.850Z,76.21
2019-02-15T00:54:55.249Z,74.69
2019-02-15T00:55:30.885Z,72.71
2019-02-15T00:56:06.286Z,74.22
2019-02-15T00:56:41.609Z,73.65
2019-02-15T00:57:17.008Z,71.09
2019-02-15T00:57:52.619Z,69.86
2019-02-15T00:58:28.006Z,72.61
2019-02-15T00:59:03.703Z,75.74
2019-02-15T00:59:39.003Z,71.85
2019-02-15T01:00:14.433Z,72.80
2019-02-15T01:00:49.866Z,74.79
2019-02-15T01:01:25.225Z,72.61
2019-02-15T01:02:00.739Z,70.34
2019-02-15T01:02:36.163Z,71.57
2019-02-15T01:03:11.359Z,68.15
2019-02-15T01:03:46.698Z,69.57
2019-02-15T01:04:21.811Z,70.72
2019-02-15T01:04:57.547Z,68.25
2019-02-15T01:05:33.153Z,66.64
2019-02-15T01:06:08.384Z,67.11
2019-02-15T01:06:43.955Z,67.40
2019-02-15T01:07:19.200Z,66.54
2019-02-15T01:07:54.800Z,62.75
2019-02-15T01:08:30.127Z,61.71
2019-02-15T01:09:05.924Z,57.54
2019-02-15T01:09:41.292Z,56.02
2019-02-15T01:10:16.391Z,55.93
2019-02-15T01:10:51.727Z,56.40
2019-02-15T01:11:27.135Z,57.82
2019-02-15T01:12:02.357Z,58.67
2019-02-15T01:12:37.543Z,61.99
2019-02-15T01:13:12.868Z,63.51
2019-02-15T01:13:48.175Z,61.99
2019-02-15T01:14:23.515Z,70.05
2019-02-15T01:14:58.842Z,71.38
2019-02-15T01:15:34.167Z,70.81
2019-02-15T01:16:09.657Z,71.28
2019-02-15T01:16:44.991Z,72.52
2019-02-15T01:17:20.509Z,70.53
2019-02-15T01:17:55.835Z,73.75
2019-02-15T01:18:31.236Z,69.57
2019-02-15T01:19:06.707Z,69.96
2019-02-15T01:19:41.925Z,69.96
2019-02-15T01:20:17.294Z,70.34
2019-02-15T01:20:53.114Z,72.42
2019-02-15T01:21:28.496Z,72.23
2019-02-15T01:22:03.758Z,69.96
2019-02-15T01:22:38.810Z,71.19
2019-02-15T01:23:14.099Z,67.11
2019-02-15T01:23:49.329Z,66.93
2019-02-15T01:24:24.738Z,65.88
2019-02-15T01:25:00.370Z,67.49
2019-02-15T01:25:35.667Z,66.74
2019-02-15T01:26:11.024Z,63.70
2019-02-15T01:26:46.314Z,61.43
2019-02-15T01:27:21.349Z,63.60
2019-02-15T01:27:56.795Z,65.12
2019-02-15T01:28:32.026Z,65.59
2019-02-15T01:29:07.616Z,65.88
2019-02-15T01:29:43.144Z,66.54
2019-02-15T01:30:18.686Z,65.12
2019-02-15T01:30:54.104Z,63.60
2019-02-15T01:31:29.727Z,60.38
2019-02-15T01:32:05.347Z,62.37
2019-02-15T01:32:41.714Z,62.47
2019-02-15T01:33:17.331Z,60.86
2019-02-15T01:33:52.541Z,59.63
2019-02-15T01:34:28.386Z,58.01
2019-02-15T01:35:03.692Z,60.00
2019-02-15T01:35:39.374Z,56.59
2019-02-15T01:36:14.546Z,58.48
2019-02-15T01:36:49.852Z,58.58
2019-02-15T01:37:25.153Z,58.77
2019-02-15T01:38:00.711Z,60.38
2019-02-15T01:38:35.952Z,58.58
2019-02-15T01:39:11.286Z,58.77
2019-02-15T01:39:46.657Z,60.76
2019-02-15T01:40:22.011Z,58.67
2019-02-15T01:40:57.534Z,57.06
2019-02-15T01:41:32.870Z,57.64
2019-02-15T01:42:08.186Z,62.85
2019-02-15T01:42:43.716Z,65.03
2019-02-15T01:43:19.025Z,68.31
2019-02-15T01:43:54.679Z,71.06
2019-02-15T01:44:30.071Z,68.91
2019-02-15T01:45:05.605Z,70.20
2019-02-15T01:45:41.009Z,68.98
2019-02-15T01:46:16.463Z,70.24
2019-02-15T01:46:52.080Z,72.00
2019-02-15T01:47:27.716Z,71.72
2019-02-15T01:48:02.820Z,71.47
2019-02-15T01:48:38.164Z,69.29
2019-02-15T01:49:13.590Z,72.14
2019-02-15T01:49:48.617Z,72.99
2019-02-15T01:50:23.906Z,72.61
2019-02-15T01:50:59.157Z,70.15
2019-02-15T01:51:34.385Z,67.30
2019-02-15T01:52:09.709Z,64.93
2019-02-15T01:52:45.018Z,67.30
2019-02-15T01:53:20.341Z,71.28
2019-02-15T01:53:56.082Z,72.61
2019-02-15T01:54:31.514Z,72.71
2019-02-15T01:55:06.821Z,72.52
2019-02-15T01:55:42.246Z,70.90
2019-02-15T01:56:17.652Z,73.08
2019-02-15T01:56:53.725Z,73.37
2019-02-15T01:57:28.931Z,75.07
2019-02-15T01:58:04.477Z,75.36
2019-02-15T01:58:39.667Z,74.95
2019-02-15T01:59:15.116Z,74.03
2019-02-15T01:59:50.607Z,72.99
2019-02-15T02:00:25.952Z,74.98
2019-02-15T02:01:01.272Z,75.93
2019-02-15T02:01:36.397Z,74.41
2019-02-15T02:02:11.964Z,72.04
2019-02-15T02:02:47.380Z,71.47
2019-02-15T02:03:22.676Z,73.56
2019-02-15T02:03:57.892Z,74.51
2019-02-15T02:04:33.379Z,76.21
2019-02-15T02:05:08.716Z,75.36
2019-02-15T02:05:43.907Z,74.22
2019-02-15T02:06:19.233Z,71.66
2019-02-15T02:06:54.360Z,69.38
2019-02-15T02:07:30.079Z,68.35
2019-02-15T02:08:05.578Z,68.35
2019-02-15T02:08:40.797Z,68.82
2019-02-15T02:09:15.908Z,67.21
2019-02-15T02:09:51.388Z,65.97
2019-02-15T02:10:26.691Z,66.64
2019-02-15T02:11:01.923Z,68.54
2019-02-15T02:11:38.225Z,70.05
2019-02-15T02:12:13.864Z,66.45
2019-02-15T02:12:49.257Z,69.38
2019-02-15T02:13:25.006Z,69.67
2019-02-15T02:14:00.393Z,71.85
2019-02-15T02:14:36.042Z,73.84
2019-02-15T02:15:11.247Z,74.22
2019-02-15T02:15:46.591Z,74.51
2019-02-15T02:16:21.785Z,71.76
2019-02-15T02:16:57.247Z,71.09
2019-02-15T02:17:32.675Z,70.72
2019-02-15T02:18:07.907Z,70.05
2019-02-15T02:18:43.250Z,68.35
2019-02-15T02:19:18.702Z,63.04
2019-02-15T02:19:53.987Z,63.51
2019-02-15T02:20:29.646Z,64.52
2019-02-15T02:21:04.858Z,63.42
2019-02-15T02:21:40.117Z,63.70
2019-02-15T02:22:15.552Z,66.54
2019-02-15T02:22:50.684Z,62.75
2019-02-15T02:23:25.890Z,63.10
2019-02-15T02:24:01.435Z,62.05
2019-02-15T02:24:36.735Z,64.33
2019-02-15T02:25:11.980Z,62.62
2019-02-15T02:25:47.306Z,61.02
2019-02-15T02:26:22.654Z,57.42
2019-02-15T02:26:58.188Z,58.55
2019-02-15T02:27:33.778Z,56.85
2019-02-15T02:28:09.295Z,59.31
2019-02-15T02:28:44.835Z,57.51
2019-02-15T02:29:20.469Z,60.64
2019-02-15T02:29:55.744Z,58.74
2019-02-15T02:30:31.153Z,58.07
2019-02-15T02:31:06.606Z,59.41
2019-02-15T02:31:41.898Z,58.26
2019-02-15T02:32:17.188Z,58.07
2019-02-15T02:32:52.492Z,59.69
2019-02-15T02:33:27.844Z,56.66
2019-02-15T02:34:03.154Z,57.04
2019-02-15T02:34:38.574Z,58.55
2019-02-15T02:35:13.983Z,59.78
2019-02-15T02:35:49.641Z,60.44
2019-02-15T02:36:25.202Z,61.68
2019-02-15T02:37:01.077Z,63.48
2019-02-15T02:37:36.812Z,64.33
2019-02-15T02:38:12.374Z,63.20
2019-02-15T02:38:47.478Z,58.26
2019-02-15T02:39:22.932Z,58.36
2019-02-15T02:39:58.241Z,60.92
2019-02-15T02:40:33.404Z,61.68
2019-02-15T02:41:08.644Z,57.89
2019-02-15T02:41:44.002Z,59.41
2019-02-15T02:42:20.027Z,59.69
2019-02-15T02:42:55.209Z,60.83
2019-02-15T02:43:30.540Z,60.54
2019-02-15T02:44:06.277Z,60.73
2019-02-15T02:44:41.803Z,61.40
2019-02-15T02:45:17.343Z,60.06
2019-02-15T02:45:53.387Z,61.40
2019-02-15T02:46:28.817Z,61.87
2019-02-15T02:47:04.437Z,62.15
2019-02-15T02:47:39.938Z,61.77
2019-02-15T02:48:15.721Z,57.60
2019-02-15T02:48:50.947Z,55.62
2019-02-15T02:49:26.563Z,56.46
2019-02-15T02:50:02.007Z,55.33
2019-02-15T02:50:37.708Z,56.94
2019-02-15T02:51:13.149Z,60.06
2019-02-15T02:51:48.595Z,59.22
2019-02-15T02:52:24.260Z,56.94
2019-02-15T02:52:59.698Z,57.32
2019-02-15T02:53:35.332Z,55.99
2019-02-15T02:54:10.638Z,58.45
2019-02-15T02:54:45.826Z,56.56
2019-02-15T02:55:20.955Z,56.85
2019-02-15T02:55:56.307Z,54.57
2019-02-15T02:56:31.810Z,54.00
2019-02-15T02:57:07.258Z,56.75
2019-02-15T02:57:42.589Z,56.18
2019-02-15T02:58:18.129Z,55.80
2019-02-15T02:58:53.457Z,52.29
2019-02-15T02:59:29.122Z,54.47
2019-02-15T03:00:04.416Z,50.97
2019-02-15T03:00:39.756Z,51.64
2019-02-15T03:01:15.161Z,56.56
2019-02-15T03:01:50.638Z,55.33
2019-02-15T03:02:26.340Z,53.88
2019-02-15T03:03:01.735Z,55.21
2019-02-15T03:03:38.372Z,53.44
2019-02-15T03:04:13.985Z,55.99
2019-02-15T03:04:49.212Z,52.56
2019-02-15T03:05:24.556Z,54.47
2019-02-15T03:06:00.063Z,56.18
2019-02-15T03:06:35.831Z,54.10
2019-02-15T03:07:11.255Z,52.11
2019-02-15T03:07:46.795Z,51.82
2019-02-15T03:08:21.946Z,53.91
2019-02-15T03:08:57.293Z,56.85
2019-02-15T03:09:33.087Z,54.86
2019-02-15T03:10:08.438Z,54.10
2019-02-15T03:10:44.138Z,55.24
2019-02-15T03:11:19.789Z,54.00
2019-02-15T03:11:55.115Z,55.90
2019-02-15T03:12:30.400Z,55.71
2019-02-15T03:13:05.941Z,53.03
2019-02-15T03:13:41.492Z,54.10
2019-02-15T03:14:16.891Z,53.06
2019-02-15T03:14:52.589Z,51.64
2019-02-15T03:15:27.902Z,49.46
2019-02-15T03:16:03.257Z,51.64
2019-02-15T03:16:38.881Z,54.19
2019-02-15T03:17:14.228Z,55.80
2019-02-15T03:17:49.857Z,52.48
2019-02-15T03:18:25.014Z,53.25
2019-02-15T03:19:00.437Z,53.72
2019-02-15T03:19:35.993Z,57.42
2019-02-15T03:20:11.598Z,60.64
2019-02-15T03:20:47.176Z,62.24
2019-02-15T03:21:22.487Z,59.88
2019-02-15T03:21:57.920Z,58.55
2019-02-15T03:22:33.341Z,56.75
2019-02-15T03:23:08.628Z,55.43
2019-02-15T03:23:43.941Z,52.58
2019-02-15T03:24:19.674Z,53.25
2019-02-15T03:24:55.011Z,54.76
2019-02-15T03:25:30.437Z,56.46
2019-02-15T03:26:05.746Z,56.75
2019-02-15T03:26:41.417Z,53.91
2019-02-15T03:27:16.793Z,57.13
2019-02-15T03:27:52.258Z,57.60
2019-02-15T03:28:27.377Z,58.74
2019-02-15T03:29:02.839Z,61.77
2019-02-15T03:29:38.633Z,61.58
2019-02-15T03:30:14.005Z,58.55
2019-02-15T03:30:49.364Z,56.66
2019-02-15T03:31:24.810Z,55.99
2019-02-15T03:32:00.243Z,54.57
2019-02-15T03:32:35.600Z,51.35
2019-02-15T03:33:10.930Z,51.45
2019-02-15T03:33:46.486Z,52.29
2019-02-15T03:34:22.207Z,55.99
2019-02-15T03:34:57.770Z,56.37
2019-02-15T03:35:33.166Z,56.27
2019-02-15T03:36:08.618Z,57.42
2019-02-15T03:36:44.136Z,56.94
2019-02-15T03:37:19.566Z,51.92
2019-02-15T03:37:54.860Z,52.77
2019-02-15T03:38:30.476Z,54.00
2019-02-15T03:39:05.686Z,53.53
2019-02-15T03:39:40.915Z,50.02
2019-02-15T03:40:16.263Z,48.60
2019-02-15T03:40:51.916Z,50.59
2019-02-15T03:41:27.423Z,46.80
2019-02-15T03:42:02.689Z,46.80
2019-02-15T03:42:38.694Z,48.32
2019-02-15T03:43:14.249Z,52.58
2019-02-15T03:43:49.776Z,53.15
2019-02-15T03:44:25.222Z,54.00
2019-02-15T03:45:00.637Z,52.01
2019-02-15T03:45:36.384Z,50.78
2019-02-15T03:46:11.787Z,55.14
2019-02-15T03:46:47.219Z,54.00
2019-02-15T03:47:22.427Z,53.88
2019-02-15T03:47:57.777Z,51.45
2019-02-15T03:48:33.316Z,52.29
2019-02-15T03:49:08.671Z,53.06
2019-02-15T03:49:43.980Z,54.93
2019-02-15T03:50:19.329Z,58.33
2019-02-15T03:50:54.623Z,55.87
2019-02-15T03:51:29.956Z,57.01
2019-02-15T03:52:05.172Z,54.07
2019-02-15T03:52:40.510Z,55.40
2019-02-15T03:53:15.819Z,52.84
2019-02-15T03:53:51.355Z,51.51
2019-02-15T03:54:27.001Z,54.26
2019-02-15T03:55:02.443Z,54.64
2019-02-15T03:55:37.971Z,52.84
2019-02-15T03:56:13.293Z,51.89
2019-02-15T03:56:48.510Z,51.89
2019-02-15T03:57:25.551Z,49.43
2019-02-15T03:58:00.767Z,47.72
2019-02-15T03:58:36.317Z,48.96
2019-02-15T03:59:11.752Z,46.59
2019-02-15T03:59:47.096Z,46.78
2019-02-15T04:00:22.604Z,47.53
2019-02-15T04:00:58.056Z,48.77
2019-02-15T04:01:33.477Z,49.71
2019-02-15T04:02:08.716Z,49.33
2019-02-15T04:02:44.408Z,50.47
2019-02-15T04:03:19.874Z,48.20
2019-02-15T04:03:55.409Z,50.28
2019-02-15T04:04:30.873Z,51.61
2019-02-15T04:05:06.279Z,51.32
2019-02-15T04:05:41.824Z,49.05
2019-02-15T04:06:17.229Z,49.33
2019-02-15T04:06:52.509Z,50.19
2019-02-15T04:07:27.822Z,52.84
2019-02-15T04:08:03.290Z,52.84
2019-02-15T04:08:38.714Z,50.57
2019-02-15T04:09:13.955Z,49.90
2019-02-15T04:09:49.386Z,55.21
2019-02-15T04:10:24.540Z,55.96
2019-02-15T04:11:00.354Z,56.25
2019-02-15T04:11:35.911Z,55.58
2019-02-15T04:12:11.431Z,56.44
2019-02-15T04:12:48.074Z,55.40
2019-02-15T04:13:23.477Z,56.25
2019-02-15T04:13:58.717Z,52.84
2019-02-15T04:14:33.997Z,51.70
2019-02-15T04:15:09.505Z,54.26
2019-02-15T04:15:45.047Z,56.06
2019-02-15T04:16:20.409Z,55.58
2019-02-15T04:16:56.022Z,56.25
2019-02-15T04:17:31.252Z,56.82
2019-02-15T04:18:06.605Z,57.95
2019-02-15T04:18:42.364Z,59.47
2019-02-15T04:19:17.796Z,57.29
2019-02-15T04:19:53.289Z,57.76
2019-02-15T04:20:28.588Z,58.33
2019-02-15T04:21:04.137Z,60.41
2019-02-15T04:21:39.461Z,59.00
2019-02-15T04:22:14.907Z,55.49
2019-02-15T04:22:50.132Z,54.26
2019-02-15T04:23:25.280Z,54.26
2019-02-15T04:24:00.795Z,53.22
2019-02-15T04:24:35.959Z,55.58
2019-02-15T04:25:11.298Z,57.48
2019-02-15T04:25:46.877Z,54.83
2019-02-15T04:26:22.098Z,57.39
2019-02-15T04:26:57.533Z,63.82
2019-02-15T04:27:33.031Z,60.41
2019-02-15T04:28:08.295Z,62.97
2019-02-15T04:28:44.121Z,65.72
2019-02-15T04:29:19.470Z,65.72
2019-02-15T04:29:55.117Z,64.90
2019-02-15T04:30:30.352Z,65.34
2019-02-15T04:31:05.874Z,67.99
2019-02-15T04:31:41.330Z,66.76
2019-02-15T04:32:16.855Z,68.27
2019-02-15T04:32:52.082Z,69.03
2019-02-15T04:33:27.384Z,68.46
2019-02-15T04:34:02.748Z,65.25
2019-02-15T04:34:38.207Z,67.24
2019-02-15T04:35:13.571Z,67.43
2019-02-15T04:35:49.040Z,67.08
2019-02-15T04:36:24.353Z,66.76
2019-02-15T04:37:00.163Z,67.27
2019-02-15T04:37:35.500Z,65.81
2019-02-15T04:38:11.122Z,64.81
2019-02-15T04:38:46.239Z,62.88
2019-02-15T04:39:21.844Z,62.53
2019-02-15T04:39:57.420Z,65.44
2019-02-15T04:40:32.533Z,66.67
2019-02-15T04:41:08.189Z,65.19
2019-02-15T04:41:43.700Z,66.67
2019-02-15T04:42:18.952Z,62.97
2019-02-15T04:42:54.261Z,63.29
2019-02-15T04:43:29.601Z,63.76
2019-02-15T04:44:04.924Z,68.08
2019-02-15T04:44:42.727Z,69.32
2019-02-15T04:45:15.388Z,67.61
2019-02-15T04:45:50.871Z,68.27
2019-02-15T04:46:26.149Z,72.16
2019-02-15T04:47:01.780Z,72.53
2019-02-15T04:47:37.617Z,72.25
2019-02-15T04:48:12.962Z,71.02
2019-02-15T04:48:48.384Z,70.74
2019-02-15T04:49:23.936Z,71.50
2019-02-15T04:49:59.433Z,69.70
2019-02-15T04:50:35.030Z,68.31
2019-02-15T04:51:10.323Z,68.18
2019-02-15T04:51:46.065Z,67.90
2019-02-15T04:52:21.561Z,67.61
2019-02-15T04:52:56.904Z,64.49
2019-02-15T04:53:32.234Z,64.14
2019-02-15T04:54:07.557Z,66.51
2019-02-15T04:54:42.760Z,66.57
2019-02-15T04:55:18.129Z,71.21
2019-02-15T04:55:53.439Z,73.39
2019-02-15T04:56:28.972Z,72.82
2019-02-15T04:57:04.301Z,73.49
2019-02-15T04:57:39.753Z,72.53
2019-02-15T04:58:15.063Z,71.31
2019-02-15T04:58:50.528Z,69.51
2019-02-15T04:59:25.802Z,66.76
2019-02-15T05:00:01.148Z,68.27
2019-02-15T05:00:36.476Z,69.22
2019-02-15T05:01:11.933Z,70.26
2019-02-15T05:01:47.442Z,70.36
2019-02-15T05:02:22.678Z,70.55
2019-02-15T05:02:57.893Z,71.59
2019-02-15T05:03:33.233Z,72.92
2019-02-15T05:04:08.649Z,74.24
2019-02-15T05:04:44.110Z,73.68
2019-02-15T05:05:19.647Z,71.12
2019-02-15T05:05:55.312Z,71.12
2019-02-15T05:06:30.709Z,68.08
2019-02-15T05:07:05.966Z,65.34
2019-02-15T05:07:41.192Z,61.74
2019-02-15T05:08:16.851Z,63.64
2019-02-15T05:08:52.159Z,64.87
2019-02-15T05:09:27.404Z,67.90
